createdAt,value
2022-08-11T00:00:37.270Z,22.12
2022-08-11T00:01:37.041Z,22.12
2022-08-11T00:02:37.452Z,22.10
2022-08-11T00:03:43.490Z,22.12
2022-08-11T00:04:37.992Z,22.09
2022-08-11T00:05:37.217Z,22.09
2022-08-11T00:06:36.976Z,22.07
2022-08-11T00:07:37.178Z,22.07
2022-08-11T00:08:36.951Z,22.06
2022-08-11T00:09:39.499Z,22.07
2022-08-11T00:10:36.949Z,22.07
2022-08-11T00:11:36.916Z,22.06
2022-08-11T00:12:37.045Z,22.07
2022-08-11T00:13:37.219Z,22.06
2022-08-11T00:14:37.958Z,22.06
2022-08-11T00:15:36.880Z,22.02
2022-08-11T00:16:36.872Z,22.02
2022-08-11T00:17:36.879Z,22.01
2022-08-11T00:18:36.849Z,22.01
2022-08-11T00:20:13.086Z,22.01
2022-08-11T00:20:37.822Z,21.97
2022-08-11T00:22:04.249Z,21.94
2022-08-11T00:22:37.946Z,21.94
2022-08-11T00:23:36.780Z,21.94
2022-08-11T00:24:49.367Z,21.94
2022-08-11T00:25:37.783Z,21.94
2022-08-11T00:26:36.741Z,21.94
2022-08-11T00:27:36.749Z,21.94
2022-08-11T00:28:36.965Z,21.92
2022-08-11T00:29:36.714Z,21.90
2022-08-11T00:30:37.705Z,21.88
2022-08-11T00:31:36.695Z,21.88
2022-08-11T00:32:37.116Z,21.85
2022-08-11T00:33:44.482Z,21.83
2022-08-11T00:34:37.644Z,21.81
2022-08-11T00:35:56.228Z,21.81
2022-08-11T00:36:37.652Z,21.79
2022-08-11T00:37:36.625Z,21.78
2022-08-11T00:38:36.609Z,21.74
2022-08-11T00:39:36.900Z,21.67
2022-08-11T00:40:36.583Z,21.69
2022-08-11T00:41:36.586Z,21.67
2022-08-11T00:42:36.708Z,21.67
2022-08-11T00:43:36.799Z,21.67
2022-08-11T00:44:36.518Z,21.66
2022-08-11T00:45:36.517Z,21.63
2022-08-11T00:46:36.508Z,21.63
2022-08-11T00:47:36.518Z,21.61
2022-08-11T00:48:36.810Z,21.60
2022-08-11T00:49:36.466Z,21.60
2022-08-11T00:50:36.459Z,21.57
2022-08-11T00:52:04.184Z,21.57
2022-08-11T00:52:37.551Z,21.56
2022-08-11T00:53:36.699Z,21.56
2022-08-11T00:54:36.400Z,21.53
2022-08-11T00:55:36.419Z,21.53
2022-08-11T00:56:36.630Z,21.50
2022-08-11T00:57:38.403Z,21.51
2022-08-11T00:58:36.351Z,21.50
2022-08-11T00:59:36.364Z,21.46
2022-08-11T01:00:36.392Z,21.46
2022-08-11T01:01:36.335Z,21.45
2022-08-11T01:02:36.565Z,21.44
2022-08-11T01:03:36.314Z,21.39
2022-08-11T01:04:36.283Z,21.36
2022-08-11T01:05:36.311Z,21.32
2022-08-11T01:06:36.278Z,21.34
2022-08-11T01:08:01.905Z,21.30
2022-08-11T01:08:37.258Z,21.24
2022-08-11T01:09:36.473Z,21.21
2022-08-11T01:10:36.229Z,21.16
2022-08-11T01:11:36.222Z,21.14
2022-08-11T01:12:42.857Z,21.14
2022-08-11T01:13:36.470Z,21.14
2022-08-11T01:14:36.499Z,21.09
2022-08-11T01:15:36.174Z,21.11
2022-08-11T01:16:36.151Z,21.08
2022-08-11T01:17:36.441Z,21.09
2022-08-11T01:18:36.131Z,21.09
2022-08-11T01:20:46.809Z,21.06
2022-08-11T01:20:47.587Z,21.08
2022-08-11T01:21:37.103Z,21.08
2022-08-11T01:22:36.200Z,21.09
2022-08-11T01:23:36.353Z,21.08
2022-08-11T01:24:36.049Z,21.06
2022-08-11T01:25:56.903Z,21.06
2022-08-11T01:26:37.042Z,21.05
2022-08-11T01:27:36.034Z,21.05
2022-08-11T01:28:35.992Z,21.04
2022-08-11T01:29:36.207Z,21.02
2022-08-11T01:30:35.989Z,21.01
2022-08-11T01:31:35.978Z,21.01
2022-08-11T01:32:36.125Z,21.01
2022-08-11T01:33:35.946Z,20.99
2022-08-11T01:34:35.947Z,20.99
2022-08-11T01:35:37.299Z,20.99
2022-08-11T01:36:35.915Z,20.98
2022-08-11T01:37:43.018Z,20.96
2022-08-11T01:38:35.884Z,20.95
2022-08-11T01:39:35.920Z,20.96
2022-08-11T01:40:38.516Z,20.96
2022-08-11T01:41:38.747Z,20.95
2022-08-11T01:42:35.856Z,20.96
2022-08-11T01:43:38.506Z,20.96
2022-08-11T01:44:35.829Z,20.96
2022-08-11T01:45:35.821Z,20.96
2022-08-11T01:46:36.090Z,20.95
2022-08-11T01:47:35.793Z,20.93
2022-08-11T01:48:35.779Z,20.90
2022-08-11T01:50:09.726Z,20.91
2022-08-11T01:50:39.391Z,20.90
2022-08-11T01:51:36.066Z,20.91
2022-08-11T01:52:38.393Z,20.89
2022-08-11T01:53:35.733Z,20.89
2022-08-11T01:54:35.704Z,20.86
2022-08-11T01:55:35.705Z,20.81
2022-08-11T01:56:38.315Z,20.77
2022-08-11T01:57:38.545Z,20.74
2022-08-11T01:58:43.489Z,20.74
2022-08-11T01:59:36.655Z,20.71
2022-08-11T02:00:35.679Z,20.69
2022-08-11T02:01:35.622Z,20.68
2022-08-11T02:02:35.975Z,20.66
2022-08-11T02:03:38.252Z,20.68
2022-08-11T02:04:38.246Z,20.66
2022-08-11T02:05:38.252Z,20.65
2022-08-11T02:06:35.564Z,20.65
2022-08-11T02:07:35.568Z,20.64
2022-08-11T02:08:35.794Z,20.62
2022-08-11T02:09:35.535Z,20.58
2022-08-11T02:10:36.600Z,20.56
2022-08-11T02:11:37.298Z,20.56
2022-08-11T02:12:35.488Z,20.53
2022-08-11T02:13:36.974Z,20.54
2022-08-11T02:14:37.148Z,20.54
2022-08-11T02:15:35.472Z,20.54
2022-08-11T02:16:35.779Z,20.51
2022-08-11T02:17:35.444Z,20.51
2022-08-11T02:18:38.104Z,20.50
2022-08-11T02:19:38.103Z,20.50
2022-08-11T02:20:37.053Z,20.50
2022-08-11T02:21:35.673Z,20.51
2022-08-11T02:22:35.375Z,20.51
2022-08-11T02:24:04.030Z,20.50
2022-08-11T02:24:36.351Z,20.50
2022-08-11T02:25:37.027Z,20.47
2022-08-11T02:26:38.013Z,20.47
2022-08-11T02:27:35.542Z,20.47
2022-08-11T02:28:38.888Z,20.47
2022-08-11T02:29:39.033Z,20.46
2022-08-11T02:30:35.277Z,20.43
2022-08-11T02:32:15.401Z,20.42
2022-08-11T02:32:39.263Z,20.41
2022-08-11T02:33:36.596Z,20.39
2022-08-11T02:34:35.249Z,20.35
2022-08-11T02:35:37.864Z,20.34
2022-08-11T02:36:35.228Z,20.33
2022-08-11T02:37:37.940Z,20.34
2022-08-11T02:38:35.681Z,20.33
2022-08-11T02:39:35.436Z,20.28
2022-08-11T02:40:35.182Z,20.28
2022-08-11T02:41:37.837Z,20.25
2022-08-11T02:42:35.939Z,20.24
2022-08-11T02:43:35.434Z,20.24
2022-08-11T02:44:35.142Z,20.23
2022-08-11T02:45:35.107Z,20.18
2022-08-11T02:46:35.098Z,20.18
2022-08-11T02:47:37.761Z,20.16
2022-08-11T02:48:35.092Z,20.16
2022-08-11T02:49:35.359Z,20.15
2022-08-11T02:50:35.050Z,20.13
2022-08-11T02:51:35.037Z,20.12
2022-08-11T02:52:35.054Z,20.10
2022-08-11T02:53:35.010Z,20.12
2022-08-11T02:54:35.001Z,20.12
2022-08-11T02:55:50.978Z,20.10
2022-08-11T02:56:36.005Z,20.10
2022-08-11T02:57:34.985Z,20.08
2022-08-11T02:58:34.979Z,20.08
2022-08-11T02:59:34.951Z,20.05
2022-08-11T03:00:34.934Z,20.05
2022-08-11T03:01:37.902Z,20.03
2022-08-11T03:02:34.926Z,20.00
2022-08-11T03:03:34.893Z,19.97
2022-08-11T03:04:37.402Z,19.91
2022-08-11T03:05:34.879Z,19.80
2022-08-11T03:06:34.867Z,19.76
2022-08-11T03:07:35.195Z,19.72
2022-08-11T03:08:34.852Z,19.70
2022-08-11T03:09:34.847Z,19.63
2022-08-11T03:10:34.816Z,19.61
2022-08-11T03:11:36.801Z,19.58
2022-08-11T03:12:34.797Z,19.55
2022-08-11T03:13:34.791Z,19.55
2022-08-11T03:14:34.783Z,19.54
2022-08-11T03:15:34.764Z,19.47
2022-08-11T03:16:34.762Z,19.43
2022-08-11T03:17:35.053Z,19.46
2022-08-11T03:18:35.453Z,19.46
2022-08-11T03:19:34.723Z,19.47
2022-08-11T03:20:38.247Z,19.48
2022-08-11T03:22:01.129Z,19.51
2022-08-11T03:22:36.164Z,19.54
2022-08-11T03:23:37.323Z,19.54
2022-08-11T03:24:37.317Z,19.54
2022-08-11T03:25:34.654Z,19.55
2022-08-11T03:26:34.645Z,19.60
2022-08-11T03:27:37.242Z,19.63
2022-08-11T03:28:34.926Z,19.61
2022-08-11T03:29:37.266Z,19.63
2022-08-11T03:30:34.909Z,19.65
2022-08-11T03:31:34.563Z,19.63
2022-08-11T03:32:37.363Z,19.61
2022-08-11T03:33:34.558Z,19.57
2022-08-11T03:34:34.558Z,19.53
2022-08-11T03:35:34.535Z,19.46
2022-08-11T03:36:36.871Z,19.39
2022-08-11T03:37:35.497Z,19.31
2022-08-11T03:38:34.486Z,19.18
2022-08-11T03:39:34.561Z,19.11
2022-08-11T03:40:34.480Z,19.11
2022-08-11T03:42:02.854Z,19.11
2022-08-11T03:42:35.723Z,19.13
2022-08-11T03:43:34.786Z,19.14
2022-08-11T03:44:34.439Z,19.14
2022-08-11T03:45:38.842Z,19.14
2022-08-11T03:46:35.411Z,19.14
2022-08-11T03:47:34.403Z,19.14
2022-08-11T03:48:34.613Z,19.15
2022-08-11T03:49:34.366Z,19.15
2022-08-11T03:50:34.352Z,19.17
2022-08-11T03:51:51.663Z,19.11
2022-08-11T03:52:35.633Z,19.10
2022-08-11T03:53:34.331Z,19.05
2022-08-11T03:54:34.314Z,19.01
2022-08-11T03:55:34.304Z,18.97
2022-08-11T03:56:34.310Z,18.94
2022-08-11T03:57:35.892Z,18.94
2022-08-11T03:58:41.741Z,18.91
2022-08-11T03:59:34.513Z,18.91
2022-08-11T04:00:34.246Z,18.87
2022-08-11T04:01:34.283Z,18.83
2022-08-11T04:02:34.218Z,18.77
2022-08-11T04:03:34.401Z,18.76
2022-08-11T04:04:36.896Z,18.74
2022-08-11T04:05:34.181Z,18.74
2022-08-11T04:06:34.155Z,18.70
2022-08-11T04:07:34.154Z,18.67
2022-08-11T04:08:34.602Z,18.68
2022-08-11T04:09:34.390Z,18.67
2022-08-11T04:10:34.128Z,18.67
2022-08-11T04:11:34.096Z,18.65
2022-08-11T04:12:35.808Z,18.65
2022-08-11T04:13:36.735Z,18.65
2022-08-11T04:14:34.410Z,18.65
2022-08-11T04:15:34.069Z,18.65
2022-08-11T04:16:34.042Z,18.65
2022-08-11T04:17:34.020Z,18.64
2022-08-11T04:18:34.022Z,18.65
2022-08-11T04:19:34.303Z,18.65
2022-08-11T04:20:34.005Z,18.64
2022-08-11T04:21:33.990Z,18.62
2022-08-11T04:22:33.971Z,18.62
2022-08-11T04:24:35.555Z,18.62
2022-08-11T04:24:39.612Z,18.62
2022-08-11T04:25:33.934Z,18.58
2022-08-11T04:26:34.932Z,18.55
2022-08-11T04:27:37.462Z,18.50
2022-08-11T04:28:33.892Z,18.44
2022-08-11T04:30:05.047Z,18.40
2022-08-11T04:30:40.604Z,18.39
2022-08-11T04:31:51.156Z,18.33
2022-08-11T04:32:35.133Z,18.29
2022-08-11T04:33:34.378Z,18.28
2022-08-11T04:34:33.839Z,18.29
2022-08-11T04:35:33.826Z,18.28
2022-08-11T04:36:33.821Z,18.24
2022-08-11T04:37:33.786Z,18.24
2022-08-11T04:38:34.044Z,18.24
2022-08-11T04:39:36.480Z,18.25
2022-08-11T04:40:33.771Z,18.27
2022-08-11T04:41:33.750Z,18.28
2022-08-11T04:42:33.822Z,18.29
2022-08-11T04:43:33.730Z,18.31
2022-08-11T04:44:33.951Z,18.33
2022-08-11T04:45:33.689Z,18.34
2022-08-11T04:46:33.708Z,18.36
2022-08-11T04:47:33.669Z,18.36
2022-08-11T04:48:34.675Z,18.37
2022-08-11T04:49:34.161Z,18.37
2022-08-11T04:50:33.657Z,18.39
2022-08-11T04:51:33.620Z,18.40
2022-08-11T04:52:37.979Z,18.40
2022-08-11T04:53:33.900Z,18.40
2022-08-11T04:54:33.591Z,18.40
2022-08-11T04:55:33.596Z,18.39
2022-08-11T04:56:33.587Z,18.40
2022-08-11T04:57:33.566Z,18.40
2022-08-11T04:58:33.542Z,18.40
2022-08-11T04:59:33.784Z,18.40
2022-08-11T05:00:33.515Z,18.42
2022-08-11T05:01:37.189Z,18.42
2022-08-11T05:02:33.557Z,18.43
2022-08-11T05:03:33.488Z,18.42
2022-08-11T05:04:33.510Z,18.44
2022-08-11T05:05:33.485Z,18.44
2022-08-11T05:06:33.446Z,18.44
2022-08-11T05:07:33.449Z,18.43
2022-08-11T05:08:33.431Z,18.43
2022-08-11T05:09:33.428Z,18.43
2022-08-11T05:10:33.438Z,18.43
2022-08-11T05:11:34.400Z,18.42
2022-08-11T05:12:33.451Z,18.43
2022-08-11T05:13:33.382Z,18.43
2022-08-11T05:14:33.369Z,18.43
2022-08-11T05:15:42.549Z,18.44
2022-08-11T05:16:37.334Z,18.43
2022-08-11T05:17:33.339Z,18.44
2022-08-11T05:18:36.254Z,18.42
2022-08-11T05:19:36.010Z,18.42
2022-08-11T05:20:33.287Z,18.42
2022-08-11T05:21:34.477Z,18.42
2022-08-11T05:22:34.269Z,18.42
2022-08-11T05:23:33.261Z,18.43
2022-08-11T05:24:33.452Z,18.44
2022-08-11T05:26:43.644Z,18.44
2022-08-11T05:26:47.640Z,18.44
2022-08-11T05:27:34.191Z,18.46
2022-08-11T05:28:33.218Z,18.47
2022-08-11T05:29:33.522Z,18.47
2022-08-11T05:30:34.602Z,18.47
2022-08-11T05:31:33.151Z,18.47
2022-08-11T05:32:33.198Z,18.47
2022-08-11T05:33:33.144Z,18.49
2022-08-11T05:34:33.124Z,18.49
2022-08-11T05:36:01.424Z,18.49
2022-08-11T05:36:34.103Z,18.50
2022-08-11T05:37:33.190Z,18.50
2022-08-11T05:38:33.074Z,18.50
2022-08-11T05:39:36.220Z,18.52
2022-08-11T05:40:33.106Z,18.52
2022-08-11T05:41:33.040Z,18.55
2022-08-11T05:42:33.040Z,18.57
2022-08-11T05:43:33.007Z,18.58
2022-08-11T05:44:33.238Z,18.59
2022-08-11T05:46:02.296Z,18.62
2022-08-11T05:46:33.978Z,18.64
2022-08-11T05:47:32.958Z,18.68
2022-08-11T05:48:32.971Z,18.70
2022-08-11T05:49:33.123Z,18.70
2022-08-11T05:50:33.395Z,18.73
2022-08-11T05:51:32.920Z,18.76
2022-08-11T05:52:32.910Z,18.77
2022-08-11T05:53:45.794Z,18.80
2022-08-11T05:54:33.881Z,18.83
2022-08-11T05:55:32.883Z,18.84
2022-08-11T05:56:38.303Z,18.86
2022-08-11T05:57:45.464Z,18.90
2022-08-11T05:58:36.963Z,18.91
2022-08-11T05:59:33.821Z,18.94
2022-08-11T06:01:46.800Z,18.98
2022-08-11T06:02:44.135Z,19.01
2022-08-11T06:03:43.769Z,19.02
2022-08-11T06:04:44.771Z,19.06
2022-08-11T06:05:44.383Z,19.08
2022-08-11T06:06:46.898Z,19.10
2022-08-11T06:07:49.123Z,19.11
2022-08-11T06:08:47.430Z,19.14
2022-08-11T06:09:44.032Z,19.17
2022-08-11T06:10:43.730Z,19.18
2022-08-11T06:12:54.680Z,19.24
2022-08-11T06:13:54.660Z,19.28
2022-08-11T06:14:54.685Z,19.29
2022-08-11T06:15:54.764Z,19.31
2022-08-11T06:16:54.624Z,19.32
2022-08-11T06:17:54.761Z,19.33
2022-08-11T06:18:54.605Z,19.38
2022-08-11T06:19:54.591Z,19.39
2022-08-11T06:20:55.636Z,19.42
2022-08-11T06:21:54.833Z,19.43
2022-08-11T06:22:54.554Z,19.47
2022-08-11T06:23:54.554Z,19.50
2022-08-11T06:24:54.532Z,19.51
2022-08-11T06:25:56.208Z,19.54
2022-08-11T06:27:11.691Z,19.54
2022-08-11T06:27:55.507Z,19.55
2022-08-11T06:28:54.488Z,19.58
2022-08-11T06:29:55.708Z,19.60
2022-08-11T06:30:54.476Z,19.63
2022-08-11T06:31:54.800Z,19.63
2022-08-11T06:32:54.436Z,19.63
2022-08-11T06:33:54.417Z,19.65
2022-08-11T06:34:54.430Z,19.66
2022-08-11T06:35:54.398Z,19.66
2022-08-11T06:36:54.389Z,19.69
2022-08-11T06:37:58.632Z,19.70
2022-08-11T06:38:54.368Z,19.73
2022-08-11T06:39:54.419Z,19.76
2022-08-11T06:40:54.349Z,19.79
2022-08-11T06:41:54.336Z,19.84
2022-08-11T06:42:54.333Z,19.86
2022-08-11T06:43:56.088Z,19.88
2022-08-11T06:44:54.806Z,19.91
2022-08-11T06:45:54.794Z,19.94
2022-08-11T06:46:54.705Z,19.98
2022-08-11T06:47:54.300Z,20.02
2022-08-11T06:48:55.038Z,20.06
2022-08-11T06:49:55.197Z,20.08
2022-08-11T06:50:54.258Z,20.10
2022-08-11T06:51:54.227Z,20.13
2022-08-11T06:52:55.433Z,20.18
2022-08-11T06:54:03.196Z,20.21
2022-08-11T06:54:55.197Z,20.27
2022-08-11T06:55:56.697Z,20.28
2022-08-11T06:57:06.707Z,20.34
2022-08-11T06:57:55.162Z,20.39
2022-08-11T06:58:54.166Z,20.46
2022-08-11T06:59:54.116Z,20.50
2022-08-11T07:00:54.127Z,20.54
2022-08-11T07:01:54.124Z,20.61
2022-08-11T07:02:54.132Z,20.66
2022-08-11T07:03:54.082Z,20.69
2022-08-11T07:04:54.066Z,20.74
2022-08-11T07:05:54.048Z,20.81
2022-08-11T07:06:54.039Z,20.86
2022-08-11T07:07:54.019Z,20.90
2022-08-11T07:08:54.314Z,20.96
2022-08-11T07:09:54.017Z,20.99
2022-08-11T07:10:53.992Z,21.08
2022-08-11T07:11:53.989Z,21.14
2022-08-11T07:12:53.986Z,21.17
2022-08-11T07:13:53.981Z,21.21
2022-08-11T07:14:54.122Z,21.24
2022-08-11T07:16:12.167Z,21.30
2022-08-11T07:16:55.136Z,21.34
2022-08-11T07:17:53.926Z,21.38
2022-08-11T07:18:53.895Z,21.44
2022-08-11T07:19:54.218Z,21.50
2022-08-11T07:20:56.442Z,21.53
2022-08-11T07:22:02.665Z,21.57
2022-08-11T07:22:54.844Z,21.61
2022-08-11T07:23:53.856Z,21.66
2022-08-11T07:24:59.307Z,21.72
2022-08-11T07:25:55.135Z,21.76
2022-08-11T07:26:53.828Z,21.81
2022-08-11T07:27:53.807Z,21.88
2022-08-11T07:28:53.782Z,21.91
2022-08-11T07:29:53.768Z,21.97
2022-08-11T07:30:54.060Z,22.02
2022-08-11T07:31:54.065Z,22.06
2022-08-11T07:32:53.751Z,22.12
2022-08-11T07:34:06.953Z,22.16
2022-08-11T07:34:54.708Z,22.20
2022-08-11T07:35:53.698Z,22.27
2022-08-11T07:36:53.710Z,22.31
2022-08-11T07:38:02.486Z,22.32
2022-08-11T07:40:04.814Z,22.43
2022-08-11T07:41:04.793Z,22.47
2022-08-11T07:42:04.785Z,22.53
2022-08-11T07:43:04.773Z,22.56
2022-08-11T07:44:04.763Z,22.62
2022-08-11T07:45:04.933Z,22.67
2022-08-11T07:46:04.746Z,22.69
2022-08-11T07:47:04.730Z,22.77
2022-08-11T07:48:04.737Z,22.83
2022-08-11T07:49:04.685Z,22.87
2022-08-11T07:50:04.695Z,22.90
2022-08-11T07:51:04.957Z,22.93
2022-08-11T07:52:04.677Z,22.97
2022-08-11T07:53:04.654Z,23.05
2022-08-11T07:54:16.429Z,23.08
2022-08-11T07:55:05.625Z,23.12
2022-08-11T07:56:04.930Z,23.19
2022-08-11T07:57:08.992Z,23.23
2022-08-11T07:58:16.395Z,23.29
2022-08-11T07:59:08.353Z,23.34
2022-08-11T08:00:05.192Z,23.38
2022-08-11T08:01:10.342Z,23.43
2022-08-11T08:02:05.723Z,23.49
2022-08-11T08:03:04.553Z,23.52
2022-08-11T08:04:04.518Z,23.58
2022-08-11T08:05:04.521Z,23.62
2022-08-11T08:06:04.525Z,23.70
2022-08-11T08:07:05.489Z,23.72
2022-08-11T08:08:04.762Z,23.75
2022-08-11T08:09:04.476Z,23.82
2022-08-11T08:10:04.463Z,23.85
2022-08-11T08:11:04.446Z,23.92
2022-08-11T08:12:04.423Z,23.94
2022-08-11T08:13:04.697Z,23.95
2022-08-11T08:14:04.416Z,24.00
2022-08-11T08:15:04.397Z,24.05
2022-08-11T08:16:04.388Z,24.12
2022-08-11T08:17:04.376Z,24.17
2022-08-11T08:18:09.529Z,24.23
2022-08-11T08:19:05.582Z,24.29
2022-08-11T08:20:04.698Z,24.35
2022-08-11T08:21:04.330Z,24.47
2022-08-11T08:22:37.456Z,24.56
2022-08-11T08:23:05.330Z,24.61
2022-08-11T08:24:04.286Z,24.69
2022-08-11T08:25:04.267Z,24.75
2022-08-11T08:26:04.629Z,24.77
2022-08-11T08:27:04.260Z,24.85
2022-08-11T08:28:04.245Z,24.90
2022-08-11T08:29:04.233Z,24.91
2022-08-11T08:30:04.235Z,24.97
2022-08-11T08:31:04.213Z,24.98
2022-08-11T08:32:04.443Z,25.01
2022-08-11T08:33:04.172Z,25.06
2022-08-11T08:34:04.162Z,25.10
2022-08-11T08:35:04.166Z,25.15
2022-08-11T08:36:04.154Z,25.20
2022-08-11T08:37:16.034Z,25.25
2022-08-11T08:38:05.116Z,25.32
2022-08-11T08:39:04.117Z,25.35
2022-08-11T08:40:04.107Z,25.39
2022-08-11T08:41:04.082Z,25.44
2022-08-11T08:42:04.397Z,25.50
2022-08-11T08:43:04.056Z,25.56
2022-08-11T08:44:34.771Z,25.62
2022-08-11T08:45:05.368Z,25.65
2022-08-11T08:46:04.026Z,25.69
2022-08-11T08:47:04.008Z,25.72
2022-08-11T08:48:04.019Z,25.79
2022-08-11T08:49:04.011Z,25.86
2022-08-11T08:50:03.999Z,25.93
2022-08-11T08:51:04.301Z,25.94
2022-08-11T08:52:21.693Z,25.99
2022-08-11T08:53:04.971Z,26.02
2022-08-11T08:54:03.940Z,26.08
2022-08-11T08:55:03.934Z,26.18
2022-08-11T08:56:03.911Z,26.24
2022-08-11T08:57:04.216Z,26.31
2022-08-11T08:58:03.891Z,26.36
2022-08-11T08:59:03.886Z,26.44
2022-08-11T09:00:03.892Z,26.47
2022-08-11T09:01:03.882Z,26.55
2022-08-11T09:02:03.844Z,26.59
2022-08-11T09:03:22.749Z,26.64
2022-08-11T09:04:11.159Z,26.62
2022-08-11T09:05:04.968Z,26.67
2022-08-11T09:06:03.805Z,26.73
2022-08-11T09:07:03.787Z,26.79
2022-08-11T09:08:03.791Z,26.80
2022-08-11T09:09:04.066Z,26.89
2022-08-11T09:10:03.768Z,26.94
2022-08-11T09:11:03.737Z,26.98
2022-08-11T09:12:03.752Z,26.99
2022-08-11T09:13:03.731Z,27.05
2022-08-11T09:14:05.883Z,27.09
2022-08-11T09:15:03.899Z,27.11
2022-08-11T09:16:04.035Z,27.17
2022-08-11T09:17:03.692Z,27.23
2022-08-11T09:18:03.743Z,27.28
2022-08-11T09:19:03.652Z,27.33
2022-08-11T09:20:03.667Z,27.36
2022-08-11T09:21:03.635Z,27.42
2022-08-11T09:22:03.842Z,27.47
2022-08-11T09:24:02.138Z,27.51
2022-08-11T09:24:12.835Z,27.51
2022-08-11T09:25:04.586Z,27.53
2022-08-11T09:26:03.587Z,27.57
2022-08-11T09:27:03.772Z,27.59
2022-08-11T09:28:03.747Z,27.59
2022-08-11T09:29:03.543Z,27.64
2022-08-11T09:30:03.522Z,27.67
2022-08-11T09:31:03.527Z,27.71
2022-08-11T09:32:03.712Z,27.79
2022-08-11T09:33:03.490Z,27.84
2022-08-11T09:34:03.517Z,27.92
2022-08-11T09:35:03.460Z,27.96
2022-08-11T09:36:03.457Z,28.01
2022-08-11T09:37:03.462Z,28.11
2022-08-11T09:38:03.827Z,28.19
2022-08-11T09:39:03.445Z,28.23
2022-08-11T09:40:03.409Z,28.17
2022-08-11T09:41:03.389Z,28.19
2022-08-11T09:42:04.332Z,28.19
2022-08-11T09:43:03.414Z,28.19
2022-08-11T09:44:04.333Z,28.23
2022-08-11T09:45:03.351Z,28.28
2022-08-11T09:46:03.377Z,28.32
2022-08-11T09:47:03.335Z,28.33
2022-08-11T09:48:03.327Z,28.35
2022-08-11T09:49:03.308Z,28.35
2022-08-11T09:50:03.586Z,28.36
2022-08-11T09:51:03.287Z,28.38
2022-08-11T09:52:05.503Z,28.38
2022-08-11T09:53:35.835Z,28.44
2022-08-11T09:54:04.266Z,28.50
2022-08-11T09:55:03.448Z,28.56
2022-08-11T09:56:03.220Z,28.56
2022-08-11T09:57:05.316Z,28.59
2022-08-11T09:58:03.517Z,28.60
2022-08-11T09:59:03.179Z,28.66
2022-08-11T10:00:12.412Z,28.59
2022-08-11T10:01:04.250Z,28.58
2022-08-11T10:02:03.567Z,28.62
2022-08-11T10:03:03.142Z,28.62
2022-08-11T10:04:03.181Z,28.65
2022-08-11T10:05:03.109Z,28.70
2022-08-11T10:06:07.720Z,28.80
2022-08-11T10:07:05.086Z,28.87
2022-08-11T10:08:03.312Z,28.93
2022-08-11T10:09:03.085Z,29.00
2022-08-11T10:10:03.069Z,29.03
2022-08-11T10:11:03.074Z,29.04
2022-08-11T10:12:03.046Z,29.01
2022-08-11T10:13:03.046Z,29.01
2022-08-11T10:14:33.003Z,29.06
2022-08-11T10:15:03.995Z,29.06
2022-08-11T10:16:15.174Z,29.03
2022-08-11T10:17:03.995Z,29.04
2022-08-11T10:18:02.976Z,29.07
2022-08-11T10:19:02.978Z,29.13
2022-08-11T10:20:04.830Z,29.18
2022-08-11T10:21:02.930Z,29.18
2022-08-11T10:22:02.929Z,29.22
2022-08-11T10:23:02.905Z,29.29
2022-08-11T10:24:05.929Z,29.31
2022-08-11T10:25:02.888Z,29.35
2022-08-11T10:26:03.093Z,29.43
2022-08-11T10:27:02.869Z,29.45
2022-08-11T10:28:29.043Z,29.52
2022-08-11T10:29:13.043Z,29.59
2022-08-11T10:30:03.830Z,29.65
2022-08-11T10:31:02.821Z,29.63
2022-08-11T10:32:04.467Z,29.59
2022-08-11T10:33:02.793Z,29.53
2022-08-11T10:34:02.996Z,29.55
2022-08-11T10:35:02.800Z,29.59
2022-08-11T10:36:02.755Z,29.63
2022-08-11T10:37:02.788Z,29.63
2022-08-11T10:38:06.145Z,29.70
2022-08-11T10:39:03.773Z,29.74
2022-08-11T10:40:02.717Z,29.81
2022-08-11T10:41:02.707Z,29.86
2022-08-11T10:42:08.582Z,29.92
2022-08-11T10:43:03.690Z,29.99
2022-08-11T10:44:03.959Z,30.05
2022-08-11T10:45:02.942Z,29.97
2022-08-11T10:46:02.658Z,29.93
2022-08-11T10:47:02.638Z,29.92
2022-08-11T10:48:02.652Z,29.96
2022-08-11T10:49:02.665Z,30.00
2022-08-11T10:50:02.599Z,30.03
2022-08-11T10:51:02.792Z,30.02
2022-08-11T10:52:23.594Z,30.00
2022-08-11T10:53:02.597Z,30.00
2022-08-11T10:54:02.561Z,30.02
2022-08-11T10:55:02.560Z,30.02
2022-08-11T10:57:02.536Z,30.08
2022-08-11T10:58:04.794Z,30.07
2022-08-11T10:59:04.083Z,30.11
2022-08-11T11:00:02.494Z,30.12
2022-08-11T11:01:02.517Z,30.16
2022-08-11T11:02:02.675Z,30.19
2022-08-11T11:03:22.037Z,30.26
2022-08-11T11:04:03.446Z,30.31
2022-08-11T11:05:02.627Z,30.33
2022-08-11T11:06:27.344Z,30.38
2022-08-11T11:07:03.431Z,30.45
2022-08-11T11:08:02.415Z,30.45
2022-08-11T11:09:04.512Z,30.33
2022-08-11T11:10:02.416Z,30.30
2022-08-11T11:11:02.696Z,30.26
2022-08-11T11:12:02.394Z,30.30
2022-08-11T11:13:02.333Z,30.34
2022-08-11T11:14:03.671Z,30.40
2022-08-11T11:15:02.324Z,30.46
2022-08-11T11:16:02.311Z,30.43
2022-08-11T11:17:02.536Z,30.36
2022-08-11T11:18:02.296Z,30.31
2022-08-11T11:19:02.282Z,30.33
2022-08-11T11:20:02.271Z,30.37
2022-08-11T11:21:02.268Z,30.40
2022-08-11T11:22:02.253Z,30.36
2022-08-11T11:23:02.569Z,30.34
2022-08-11T11:24:02.216Z,30.40
2022-08-11T11:25:02.209Z,30.45
2022-08-11T11:26:02.195Z,30.40
2022-08-11T11:27:02.177Z,30.43
2022-08-11T11:28:04.839Z,30.47
2022-08-11T11:29:02.490Z,30.54
2022-08-11T11:30:02.179Z,30.62
2022-08-11T11:31:02.139Z,30.62
2022-08-11T11:32:02.127Z,30.65
2022-08-11T11:33:02.449Z,30.64
2022-08-11T11:34:06.477Z,30.65
2022-08-11T11:35:03.090Z,30.69
2022-08-11T11:36:02.073Z,30.71
2022-08-11T11:37:02.060Z,30.74
2022-08-11T11:38:04.748Z,30.75
2022-08-11T11:39:02.323Z,30.78
2022-08-11T11:40:02.045Z,30.84
2022-08-11T11:41:02.024Z,30.89
2022-08-11T11:42:02.013Z,30.91
2022-08-11T11:43:01.996Z,30.90
2022-08-11T11:44:01.989Z,30.87
2022-08-11T11:45:02.298Z,30.90
2022-08-11T11:46:01.958Z,30.96
2022-08-11T11:47:01.950Z,31.02
2022-08-11T11:48:01.978Z,31.05
2022-08-11T11:49:01.969Z,31.11
2022-08-11T11:50:02.915Z,31.15
2022-08-11T11:51:01.922Z,31.18
2022-08-11T11:52:01.914Z,31.23
2022-08-11T11:53:02.102Z,31.20
2022-08-11T11:54:01.886Z,31.09
2022-08-11T11:55:01.873Z,31.12
2022-08-11T11:56:01.849Z,31.13
2022-08-11T11:57:01.862Z,31.15
2022-08-11T11:58:02.677Z,31.18
2022-08-11T11:59:01.844Z,31.20
2022-08-11T12:00:02.086Z,31.12
2022-08-11T12:01:01.791Z,31.09
2022-08-11T12:02:01.795Z,31.06
2022-08-11T12:03:02.822Z,30.99
2022-08-11T12:04:01.751Z,31.02
2022-08-11T12:05:01.757Z,31.02
2022-08-11T12:06:01.767Z,31.01
2022-08-11T12:07:01.747Z,31.01
2022-08-11T12:08:10.512Z,31.01
2022-08-11T12:09:02.696Z,31.06
2022-08-11T12:10:01.687Z,31.09
2022-08-11T12:11:01.667Z,31.18
2022-08-11T12:12:01.701Z,31.23
2022-08-11T12:13:01.671Z,31.18
2022-08-11T12:14:01.640Z,31.23
2022-08-11T12:15:01.645Z,31.30
2022-08-11T12:16:31.440Z,31.30
2022-08-11T12:17:02.625Z,31.31
2022-08-11T12:18:01.601Z,31.36
2022-08-11T12:19:01.613Z,31.40
2022-08-11T12:20:01.786Z,31.45
2022-08-11T12:21:01.573Z,31.49
2022-08-11T12:22:01.859Z,31.49
2022-08-11T12:23:01.535Z,31.43
2022-08-11T12:24:04.408Z,31.39
2022-08-11T12:25:01.798Z,31.38
2022-08-11T12:26:23.717Z,31.38
2022-08-11T12:27:15.185Z,31.31
2022-08-11T12:28:02.490Z,31.28
2022-08-11T12:29:01.469Z,31.28
2022-08-11T12:30:01.793Z,31.30
2022-08-11T12:31:01.458Z,31.30
2022-08-11T12:32:01.435Z,31.30
2022-08-11T12:33:01.452Z,31.30
2022-08-11T12:34:01.415Z,31.31
2022-08-11T12:35:01.414Z,31.33
2022-08-11T12:36:01.577Z,31.35
2022-08-11T12:37:01.403Z,31.42
2022-08-11T12:38:06.016Z,31.46
2022-08-11T12:39:02.360Z,31.50
2022-08-11T12:40:16.047Z,31.58
2022-08-11T12:41:17.963Z,31.64
2022-08-11T12:42:02.416Z,31.67
2022-08-11T12:43:01.316Z,31.67
2022-08-11T12:44:01.628Z,31.68
2022-08-11T12:45:01.305Z,31.75
2022-08-11T12:46:01.287Z,31.76
2022-08-11T12:47:01.265Z,31.79
2022-08-11T12:48:42.534Z,31.75
2022-08-11T12:49:03.129Z,31.70
2022-08-11T12:50:01.250Z,31.70
2022-08-11T12:51:01.236Z,31.70
2022-08-11T12:52:13.815Z,31.67
2022-08-11T12:53:02.211Z,31.64
2022-08-11T12:54:01.188Z,31.64
2022-08-11T12:55:01.171Z,31.62
2022-08-11T12:56:03.937Z,31.61
2022-08-11T12:57:02.468Z,31.58